createdAt,value
2022-12-25T00:02:13.639Z,7.59
2022-12-25T00:07:15.809Z,7.32
2022-12-25T00:12:19.380Z,7.32
2022-12-25T00:17:21.425Z,7.26
2022-12-25T00:22:23.480Z,7.36
2022-12-25T00:27:25.491Z,7.45
2022-12-25T00:32:27.581Z,7.39
2022-12-25T00:37:29.635Z,7.31
2022-12-25T00:42:31.799Z,7.19
2022-12-25T00:47:33.790Z,7.11
2022-12-25T00:52:35.805Z,7.22
2022-12-25T00:57:37.744Z,6.95
2022-12-25T01:02:39.801Z,6.88
2022-12-25T01:07:41.841Z,6.82
2022-12-25T01:12:44.219Z,7.06
2022-12-25T01:17:46.660Z,7.06
2022-12-25T01:22:48.715Z,6.90
2022-12-25T01:27:50.798Z,7.01
2022-12-25T01:32:52.865Z,7.28
2022-12-25T01:37:55.468Z,7.29
2022-12-25T01:42:57.428Z,7.34
2022-12-25T01:48:01.941Z,7.22
2022-12-25T01:53:04.701Z,7.50
2022-12-25T01:58:06.937Z,7.46
2022-12-25T02:03:09.032Z,7.57
2022-12-25T02:08:12.538Z,7.59
2022-12-25T02:13:16.252Z,7.66
2022-12-25T02:18:46.431Z,7.73
2022-12-25T02:24:37.659Z,7.78
2022-12-25T02:30:05.764Z,7.78
2022-12-25T02:35:10.801Z,7.76
2022-12-25T02:40:28.442Z,7.55
2022-12-25T02:46:03.145Z,7.54
2022-12-25T02:51:25.431Z,7.64
2022-12-25T02:56:47.277Z,7.63
2022-12-25T03:02:25.536Z,7.43
2022-12-25T03:07:28.435Z,7.51
2022-12-25T03:12:42.083Z,7.59
2022-12-25T03:17:50.344Z,7.61
2022-12-25T03:23:11.145Z,7.44
2022-12-25T03:28:13.102Z,7.60
2022-12-25T03:33:44.383Z,7.54
2022-12-25T03:39:32.860Z,7.36
2022-12-25T03:45:14.436Z,7.35
2022-12-25T03:50:47.145Z,7.10
2022-12-25T03:56:07.999Z,7.21
2022-12-25T04:01:28.797Z,7.14
2022-12-25T04:06:49.325Z,7.21
2022-12-25T04:12:09.962Z,7.08
2022-12-25T04:17:30.760Z,7.18
2022-12-25T04:22:51.493Z,7.47
2022-12-25T04:28:12.185Z,7.51
2022-12-25T04:33:33.211Z,7.48
2022-12-25T04:38:37.302Z,7.49
2022-12-25T04:43:39.273Z,7.45
2022-12-25T04:48:41.263Z,7.39
2022-12-25T04:53:43.727Z,7.34
2022-12-25T04:58:46.025Z,7.50
2022-12-25T05:03:48.146Z,7.51
2022-12-25T05:08:50.249Z,7.22
2022-12-25T05:13:52.252Z,7.39
2022-12-25T05:18:54.350Z,7.32
2022-12-25T05:23:56.271Z,7.26
2022-12-25T05:28:59.495Z,7.05
2022-12-25T05:34:01.678Z,7.14
2022-12-25T05:39:03.660Z,7.06
2022-12-25T05:44:05.729Z,7.03
2022-12-25T05:49:07.900Z,7.04
2022-12-25T05:55:19.923Z,7.09
2022-12-25T06:00:21.862Z,6.85
2022-12-25T06:05:23.847Z,6.98
2022-12-25T06:10:25.879Z,6.73
2022-12-25T06:15:27.891Z,6.92
2022-12-25T06:21:40.103Z,7.00
2022-12-25T06:26:42.537Z,6.65
2022-12-25T06:31:49.904Z,7.02
2022-12-25T06:36:51.984Z,7.02
2022-12-25T06:41:53.995Z,7.10
2022-12-25T06:46:55.977Z,7.19
2022-12-25T06:51:57.922Z,7.23
2022-12-25T06:56:59.931Z,7.02
2022-12-25T07:02:03.077Z,7.21
2022-12-25T07:07:09.178Z,7.26
2022-12-25T07:12:17.443Z,7.21
2022-12-25T07:17:20.666Z,7.08
2022-12-25T07:22:22.755Z,7.23
2022-12-25T07:27:24.794Z,7.07
2022-12-25T07:32:30.770Z,7.24
2022-12-25T07:37:32.743Z,7.20
2022-12-25T07:42:34.811Z,7.18
2022-12-25T07:47:36.819Z,7.18
2022-12-25T07:52:43.383Z,7.25
2022-12-25T07:57:45.803Z,7.05
2022-12-25T08:02:50.915Z,7.15
2022-12-25T08:07:57.646Z,7.28
2022-12-25T08:13:00.418Z,7.31
2022-12-25T08:18:02.484Z,7.37
2022-12-25T08:23:05.110Z,7.29
2022-12-25T08:28:06.971Z,7.45
2022-12-25T08:33:08.931Z,7.47
2022-12-25T08:38:10.931Z,7.63
2022-12-25T08:43:12.975Z,7.73
2022-12-25T08:48:14.951Z,7.59
2022-12-25T08:53:17.476Z,7.89
2022-12-25T08:58:19.893Z,8.06
2022-12-25T09:03:22.680Z,8.17
2022-12-25T09:08:24.696Z,8.29
2022-12-25T09:13:26.771Z,8.41
2022-12-25T09:18:28.868Z,8.71
2022-12-25T09:23:31.407Z,8.97
2022-12-25T09:28:33.926Z,9.65
2022-12-25T09:33:36.428Z,10.76
2022-12-25T09:38:38.538Z,11.22
2022-12-25T09:44:07.080Z,11.01
2022-12-25T09:49:24.520Z,10.27
2022-12-25T09:54:38.154Z,10.35
2022-12-25T09:59:41.907Z,10.38
2022-12-25T10:04:56.079Z,11.31
2022-12-25T10:10:20.666Z,12.30
2022-12-25T10:15:40.462Z,13.19
2022-12-25T10:20:55.839Z,13.18
2022-12-25T10:25:58.146Z,13.63
2022-12-25T10:31:02.648Z,13.78
2022-12-25T10:36:06.965Z,13.82
2022-12-25T10:41:19.855Z,13.85
2022-12-25T10:46:23.934Z,14.63
2022-12-25T10:51:34.291Z,14.62
2022-12-25T10:56:36.422Z,13.82
2022-12-25T11:01:38.548Z,13.14
2022-12-25T11:06:40.467Z,12.72
2022-12-25T11:11:42.440Z,12.57
2022-12-25T11:16:44.657Z,12.50
2022-12-25T11:21:51.715Z,12.66
2022-12-25T11:26:56.777Z,12.34
2022-12-25T11:32:00.492Z,12.64
2022-12-25T11:37:03.991Z,12.45
2022-12-25T11:49:19.150Z,12.72
2022-12-25T11:54:31.843Z,12.72
2022-12-25T11:59:49.430Z,12.70
2022-12-25T12:04:53.990Z,12.67
2022-12-25T12:10:18.363Z,12.64
2022-12-25T12:15:30.310Z,12.59
2022-12-25T12:20:34.754Z,12.64
2022-12-25T12:25:40.495Z,12.60
2022-12-25T12:30:42.701Z,12.66
2022-12-25T12:35:44.859Z,12.71
2022-12-25T12:40:57.719Z,12.72
2022-12-25T12:46:15.013Z,12.72
2022-12-25T12:51:33.049Z,12.79
2022-12-25T12:56:35.611Z,12.79
2022-12-25T13:01:52.203Z,12.80
2022-12-25T13:07:58.671Z,12.87
2022-12-25T13:13:10.430Z,12.90
2022-12-25T13:18:13.008Z,12.90
2022-12-25T13:23:36.097Z,12.87
2022-12-25T13:28:38.281Z,13.02
2022-12-25T13:33:41.728Z,13.23
2022-12-25T13:38:49.538Z,13.20
2022-12-25T13:43:51.595Z,13.29
2022-12-25T13:49:01.613Z,13.23
2022-12-25T13:54:05.870Z,13.07
2022-12-25T13:59:16.934Z,12.87
2022-12-25T14:04:21.731Z,12.80
2022-12-25T14:09:24.070Z,12.83
2022-12-25T14:14:26.171Z,12.72
2022-12-25T14:19:30.888Z,12.66
2022-12-25T14:24:34.254Z,12.66
2022-12-25T14:29:38.856Z,12.80
2022-12-25T14:34:43.023Z,12.93
2022-12-25T14:39:48.287Z,12.90
2022-12-25T14:45:05.618Z,12.86
2022-12-25T14:50:15.852Z,12.88
2022-12-25T14:55:21.449Z,12.81
2022-12-25T15:00:32.096Z,12.72
2022-12-25T15:05:37.287Z,12.89
2022-12-25T15:16:06.435Z,12.87
2022-12-25T15:21:23.910Z,12.87
2022-12-25T15:26:29.308Z,12.83
2022-12-25T15:31:34.537Z,12.76
2022-12-25T15:36:40.085Z,12.73
2022-12-25T15:42:01.975Z,12.74
2022-12-25T15:47:07.418Z,12.64
2022-12-25T15:52:15.771Z,12.55
2022-12-25T15:57:26.522Z,12.55
2022-12-25T16:02:29.259Z,12.46
2022-12-25T16:07:34.424Z,12.23
2022-12-25T16:12:39.177Z,12.33
2022-12-25T16:17:41.592Z,12.09
2022-12-25T16:22:44.479Z,12.18
2022-12-25T16:27:47.262Z,12.14
2022-12-25T16:32:51.471Z,12.05
2022-12-25T16:37:54.269Z,11.94
2022-12-25T16:42:56.786Z,11.82
2022-12-25T16:47:58.898Z,11.80
2022-12-25T16:53:01.702Z,11.72
2022-12-25T16:58:04.103Z,11.67
2022-12-25T17:03:07.522Z,11.43
2022-12-25T17:08:09.578Z,11.53
2022-12-25T17:13:11.760Z,11.40
2022-12-25T17:18:13.842Z,11.32
2022-12-25T17:23:15.801Z,11.24
2022-12-25T17:28:17.714Z,11.18
2022-12-25T17:33:19.780Z,11.11
2022-12-25T17:38:21.843Z,11.03
2022-12-25T17:43:23.939Z,10.96
2022-12-25T17:48:25.885Z,10.86
2022-12-25T17:53:28.131Z,10.64
2022-12-25T17:58:30.301Z,10.61
2022-12-25T18:03:32.418Z,10.74
2022-12-25T18:08:39.634Z,10.71
2022-12-25T18:13:44.870Z,10.59
2022-12-25T18:18:51.890Z,10.63
2022-12-25T18:23:54.518Z,10.34
2022-12-25T18:28:57.686Z,10.51
2022-12-25T18:34:00.414Z,10.43
2022-12-25T18:39:04.034Z,10.42
2022-12-25T18:44:06.258Z,10.36
2022-12-25T18:49:08.774Z,10.28
2022-12-25T18:54:10.877Z,10.13
2022-12-25T18:59:12.783Z,10.29
2022-12-25T19:04:17.579Z,10.26
2022-12-25T19:09:20.371Z,9.98
2022-12-25T19:14:22.356Z,10.18
2022-12-25T19:19:25.149Z,10.09
2022-12-25T19:24:27.240Z,9.83
2022-12-25T19:29:29.461Z,9.91
2022-12-25T19:34:31.735Z,9.99
2022-12-25T19:39:33.977Z,9.93
2022-12-25T19:44:36.050Z,9.88
2022-12-25T19:49:39.880Z,9.83
2022-12-25T19:54:43.943Z,9.59
2022-12-25T19:59:45.915Z,9.58
2022-12-25T20:04:48.283Z,9.71
2022-12-25T20:09:50.476Z,9.67
2022-12-25T20:14:52.517Z,9.70
2022-12-25T20:19:54.725Z,9.63
2022-12-25T20:24:56.691Z,9.62
2022-12-25T20:29:58.630Z,9.54
2022-12-25T20:35:00.587Z,9.54
2022-12-25T20:40:03.938Z,9.49
2022-12-25T20:45:07.821Z,9.44
2022-12-25T20:50:10.193Z,9.51
2022-12-25T20:55:15.811Z,9.47
2022-12-25T21:00:18.092Z,9.43
2022-12-25T21:05:22.098Z,9.39
2022-12-25T21:10:24.285Z,9.30
2022-12-25T21:15:27.622Z,9.30
2022-12-25T21:20:29.664Z,9.28
2022-12-25T21:25:31.631Z,9.27
2022-12-25T21:30:33.928Z,9.27
2022-12-25T21:35:40.501Z,9.23
2022-12-25T21:40:43.659Z,9.04
2022-12-25T21:45:46.042Z,9.09
2022-12-25T21:51:06.837Z,9.00
2022-12-25T21:56:09.247Z,8.94
2022-12-25T22:01:11.955Z,8.86
2022-12-25T22:06:35.691Z,8.72
2022-12-25T22:11:58.304Z,8.73
2022-12-25T22:17:19.239Z,8.66
2022-12-25T22:22:23.938Z,8.58
2022-12-25T22:27:32.452Z,8.57
2022-12-25T22:32:34.438Z,8.49
2022-12-25T22:37:37.389Z,8.37
2022-12-25T22:42:39.341Z,8.47
2022-12-25T22:47:41.991Z,8.27
2022-12-25T22:52:46.738Z,8.29
2022-12-25T22:57:50.588Z,8.40
2022-12-25T23:02:52.996Z,8.33
2022-12-25T23:07:55.783Z,8.22
2022-12-25T23:13:16.590Z,8.01
2022-12-25T23:18:39.777Z,8.13
2022-12-25T23:24:00.328Z,8.09
2022-12-25T23:29:24.186Z,8.14
2022-12-25T23:34:26.827Z,8.10
2022-12-25T23:39:29.060Z,8.00
2022-12-25T23:44:31.423Z,8.04
2022-12-25T23:49:33.349Z,8.06
2022-12-25T23:54:35.349Z,8.04
